Time;durP1;ratioP1;P1;durP2;ratioP2;P2;SDS_P1;SDS_P2;PMS_P1;PMS_P2;Temp;Humidity;BMP_temperature;BMP_pressure;BME280_temperature;BME280_humidity;BME280_pressure;Samples;Min_cycle;Max_cycle;Signal;HPM_P1;HPM_P2
2022/12/16 00:01:05;;;;;;;24.47;12.20;;;;;;;4.62;80.52;101118.19;5011353;28;20066;-88
2022/12/16 00:03:50;;;;;;;25.98;14.68;;;;;;;4.62;80.62;101125.31;4996131;28;20130;-88
2022/12/16 00:06:32;;;;;;;22.80;12.45;;;;;;;4.64;80.56;101131.41;5013602;28;20066;-87
2022/12/16 00:09:01;;;;;;;22.80;13.50;;;;;;;4.54;80.50;101109.91;4980552;28;20049;-88
2022/12/16 00:11:31;;;;;;;25.30;13.35;;;;;;;4.48;81.09;101107.69;5002714;28;20058;-87
2022/12/16 00:13:59;;;;;;;21.13;12.70;;;;;;;4.37;81.41;101096.94;4963650;28;20049;-87
2022/12/16 00:16:43;;;;;;;20.60;11.57;;;;;;;4.55;81.73;101132.91;4977852;28;20050;-86
2022/12/16 00:19:09;;;;;;;24.33;13.35;;;;;;;4.47;82.21;101102.44;4978771;28;20125;-88
2022/12/16 00:21:58;;;;;;;23.30;12.57;;;;;;;4.55;82.68;101110.75;4981445;28;20054;-88
2022/12/16 00:24:30;;;;;;;22.17;12.35;;;;;;;4.35;82.34;101081.06;4988419;28;20101;-87
2022/12/16 00:26:56;;;;;;;19.40;11.95;;;;;;;4.63;82.39;101116.34;4994358;28;20035;-88
2022/12/16 00:29:37;;;;;;;26.67;12.10;;;;;;;4.56;82.24;101091.97;4999968;28;20026;-85
2022/12/16 00:32:50;;;;;;;19.77;11.32;;;;;;;4.98;82.38;101124.44;4966102;28;20084;-88
2022/12/16 00:35:21;;;;;;;21.02;10.88;;;;;;;5.16;82.93;101121.38;5016084;28;20038;-87
2022/12/16 00:38:10;;;;;;;19.00;11.57;;;;;;;5.06;84.53;101073.25;5000924;28;20057;-87
2022/12/16 00:40:39;;;;;;;17.98;11.13;;;;;;;5.15;84.23;101075.22;4984541;28;20152;-87
2022/12/16 00:43:21;;;;;;;18.30;10.95;;;;;;;5.54;84.65;101109.63;5013748;28;20109;-86
2022/12/16 00:45:52;;;;;;;17.13;10.60;;;;;;;5.36;83.81;101074.53;5006114;28;20121;-87
2022/12/16 00:48:34;;;;;;;22.25;11.27;;;;;;;5.47;81.75;101078.06;4984207;28;20037;-89
2022/12/16 00:51:01;;;;;;;21.67;12.35;;;;;;;5.34;82.70;101048.00;4969905;28;20054;-87
2022/12/16 00:53:31;;;;;;;22.23;11.88;;;;;;;5.65;82.24;101080.31;4996847;28;20074;-88
2022/12/16 00:56:17;;;;;;;23.05;12.68;;;;;;;5.57;82.48;101056.91;4978950;28;20058;-88
2022/12/16 00:58:47;;;;;;;22.42;13.38;;;;;;;5.78;82.27;101096.19;4993288;28;20093;-88
2022/12/16 01:01:18;;;;;;;27.95;13.20;;;;;;;5.82;82.31;101093.19;4993873;28;20053;-88
2022/12/16 01:03:45;;;;;;;23.98;13.10;;;;;;;5.63;81.85;101032.41;4998482;28;20046;-87
2022/12/16 01:06:21;;;;;;;23.92;12.57;;;;;;;5.79;82.76;101033.88;4980045;28;20106;-89
2022/12/16 01:08:52;;;;;;;22.38;13.38;;;;;;;6.07;84.72;101065.44;4996332;28;20167;-88
2022/12/16 01:11:21;;;;;;;26.17;13.05;;;;;;;6.11;84.78;101053.56;5003236;28;20045;-86
2022/12/16 01:13:50;;;;;;;23.23;13.10;;;;;;;6.33;84.95;101066.03;4972701;28;20070;-87
2022/12/16 01:16:16;;;;;;;21.45;13.48;;;;;;;6.45;85.33;101066.84;4994355;28;20042;-87
2022/12/16 01:19:24;;;;;;;23.02;13.13;;;;;;;6.36;85.57;101038.22;4975191;28;20109;-88
2022/12/16 01:21:51;;;;;;;24.00;13.40;;;;;;;6.41;85.16;101027.16;4982466;28;20073;-86
2022/12/16 01:24:20;;;;;;;24.10;15.07;;;;;;;6.68;85.68;101050.78;4974804;28;20114;-87
2022/12/16 01:26:48;;;;;;;22.40;13.68;;;;;;;6.62;85.58;101025.41;4964063;28;20048;-87
2022/12/16 01:29:37;;;;;;;21.20;12.88;;;;;;;6.86;86.40;101043.03;4969174;28;20060;-88
2022/12/16 01:32:14;;;;;;;22.48;12.75;;;;;;;7.05;86.44;101064.63;4996797;28;20050;-86
2022/12/16 01:34:42;;;;;;;21.67;13.10;;;;;;;7.05;86.28;101050.41;5001756;28;20058;-88
2022/12/16 01:37:48;;;;;;;20.90;12.52;;;;;;;7.13;86.31;101047.94;4993138;28;20117;-87
2022/12/16 01:40:23;;;;;;;20.02;11.98;;;;;;;7.24;85.24;101039.00;4987981;28;20054;-88
2022/12/16 01:43:00;;;;;;;21.05;12.57;;;;;;;7.57;85.54;101078.09;4961585;28;20066;-86
2022/12/16 01:45:33;;;;;;;18.50;11.80;;;;;;;7.60;84.99;101067.09;4980415;28;20141;-87
2022/12/16 01:48:13;;;;;;;22.02;13.50;;;;;;;7.54;85.52;101083.69;4971337;28;20082;-87
2022/12/16 01:50:45;;;;;;;18.00;12.15;;;;;;;7.72;84.19;101082.09;4996277;28;20038;-87
2022/12/16 01:53:11;;;;;;;17.48;11.50;;;;;;;7.78;83.63;101081.56;5006029;28;20045;-88
2022/12/16 01:55:45;;;;;;;17.90;11.77;;;;;;;7.70;84.30;101043.06;4992146;28;20059;-89
2022/12/16 01:58:45;;;;;;;18.65;12.30;;;;;;;7.94;83.81;101070.41;4984716;28;20077;-86
2022/12/16 02:01:12;;;;;;;19.60;11.88;;;;;;;7.90;83.61;101044.03;5002175;28;20078;-86
2022/12/16 02:03:38;;;;;;;;;;;;;;;8.11;84.16;101071.59;4976903;28;20041;-87
2022/12/16 02:06:09;;;;;;;16.10;10.35;;;;;;;7.80;84.60;101031.44;4989144;28;19984;-87
2022/12/16 02:08:35;;;;;;;16.13;11.00;;;;;;;7.92;84.68;101044.75;4988172;28;20053;-86
2022/12/16 02:11:50;;;;;;;18.33;11.55;;;;;;;8.15;84.87;101073.03;4970669;28;20046;-86
2022/12/16 02:14:49;;;;;;;18.75;10.82;;;;;;;8.12;84.66;101075.94;4959806;28;20086;-86
2022/12/16 02:17:31;;;;;;;17.15;11.80;;;;;;;8.21;84.53;101075.13;4993828;28;20061;-86
2022/12/16 02:20:24;;;;;;;19.60;12.13;;;;;;;8.22;84.05;101063.47;5001321;28;20098;-86
2022/12/16 02:23:40;;;;;;;18.92;11.45;;;;;;;8.20;83.88;101043.16;4996279;28;20047;-85
2022/12/16 02:26:44;;;;;;;17.23;10.98;;;;;;;8.23;83.73;101049.06;4990797;28;20047;-87
2022/12/16 02:29:31;;;;;;;18.27;11.98;;;;;;;8.32;83.35;101055.44;4966243;28;20078;-88
2022/12/16 02:31:57;;;;;;;18.98;11.60;;;;;;;8.33;83.83;101064.31;5006439;28;20042;-86
2022/12/16 02:34:53;;;;;;;15.23;11.10;;;;;;;8.34;83.20;101069.56;4991965;28;20066;-87
2022/12/16 02:38:03;;;;;;;17.85;11.75;;;;;;;8.35;83.06;101047.13;5005341;28;20052;-89
2022/12/16 02:56:46;;;;;;;16.70;11.10;;;;;;;8.39;83.76;101024.44;4343858;26;20089;-86
2022/12/16 03:31:49;;;;;;;12.02;8.30;;;;;;;8.98;83.32;101016.47;5013799;28;20051;-89
2022/12/16 03:34:36;;;;;;;13.93;9.13;;;;;;;9.14;83.90;101045.41;4998342;28;20225;-89
2022/12/16 03:37:08;;;;;;;14.20;9.10;;;;;;;9.02;83.87;101020.59;5008168;28;20046;-88
2022/12/16 03:39:56;;;;;;;13.70;9.02;;;;;;;9.11;83.84;101010.81;4992331;28;20065;-84
2022/12/16 03:42:31;;;;;;;13.18;9.55;;;;;;;9.14;84.41;101032.00;4979879;28;20039;-86
2022/12/16 03:45:07;;;;;;;15.32;9.68;;;;;;;9.22;84.85;101022.22;4997064;28;20069;-90
2022/12/16 03:47:50;;;;;;;14.95;10.35;;;;;;;8.97;86.40;100988.81;5293532;23;20061;-89
2022/12/16 03:50:49;;;;;;;14.15;10.00;;;;;;;9.21;86.70;101025.91;5051874;28;20092;-90
2022/12/16 03:53:36;;;;;;;16.70;10.00;;;;;;;9.17;86.32;100996.84;5043472;28;20041;-85
2022/12/16 03:56:18;;;;;;;15.13;9.90;;;;;;;9.27;86.27;101005.72;5017988;28;20474;-88
2022/12/16 03:58:51;;;;;;;13.52;9.25;;;;;;;9.24;86.93;100996.13;5043886;28;20113;-87
2022/12/16 04:01:17;;;;;;;13.20;9.57;;;;;;;9.33;87.06;100994.41;5018972;28;20046;-89
2022/12/16 04:04:08;;;;;;;13.75;9.68;;;;;;;9.31;86.87;101012.50;5031939;28;20064;-88
2022/12/16 04:06:38;;;;;;;14.23;10.40;;;;;;;9.30;87.63;101016.19;5002176;28;20056;-90
2022/12/16 04:09:55;;;;;;;14.75;9.68;;;;;;;9.36;88.04;101028.16;5000757;28;20044;-90
2022/12/16 04:29:25;;;;;;;13.38;9.50;;;;;;;9.42;87.94;101024.91;5019427;28;20053;-85
2022/12/16 04:31:54;;;;;;;13.98;9.18;;;;;;;9.62;87.69;101052.53;5027451;28;20042;-89
